createdAt,value
2023-04-16T00:00:48.692Z,97477.67
2023-04-16T00:03:32.174Z,97480.67
2023-04-16T00:06:00.791Z,97480.83
2023-04-16T00:08:28.832Z,97482.81
2023-04-16T00:10:56.756Z,97483.30
2023-04-16T00:13:26.178Z,97486.92
2023-04-16T00:15:54.104Z,97488.89
2023-04-16T00:18:22.156Z,97487.23
2023-04-16T00:20:50.898Z,97488.98
2023-04-16T00:23:19.138Z,97488.89
2023-04-16T00:25:47.472Z,97488.52
2023-04-16T00:28:15.398Z,97491.61
2023-04-16T00:30:43.625Z,97492.67
2023-04-16T00:33:12.025Z,97495.44
2023-04-16T00:35:40.011Z,97497.13
2023-04-16T00:38:08.502Z,97496.20
2023-04-16T00:40:36.557Z,97496.84
2023-04-16T00:43:04.642Z,97499.44
2023-04-16T00:45:32.886Z,97504.02
2023-04-16T00:48:01.261Z,97506.56
2023-04-16T00:50:29.862Z,97505.34
2023-04-16T00:52:58.329Z,97506.73
2023-04-16T00:55:27.303Z,97508.96
2023-04-16T00:57:55.348Z,97509.78
2023-04-16T01:00:23.763Z,97509.88
2023-04-16T01:02:52.398Z,97511.84
2023-04-16T01:05:21.118Z,97517.34
2023-04-16T01:07:49.044Z,97520.91
2023-04-16T01:10:17.357Z,97523.23
2023-04-16T01:12:45.732Z,97523.02
2023-04-16T01:15:13.639Z,97525.95
2023-04-16T01:17:46.200Z,97531.88
2023-04-16T01:20:15.018Z,97535.78
2023-04-16T01:22:42.986Z,97536.99
2023-04-16T01:25:15.939Z,97536.95
2023-04-16T01:27:43.996Z,97538.97
2023-04-16T01:30:12.210Z,97535.60
2023-04-16T01:32:49.533Z,97539.05
2023-04-16T01:35:18.455Z,97540.06
2023-04-16T01:37:46.705Z,97542.51
2023-04-16T01:40:14.613Z,97546.94
2023-04-16T01:42:42.582Z,97544.91
2023-04-16T01:45:11.226Z,97545.11
2023-04-16T01:47:39.237Z,97545.15
2023-04-16T01:50:07.879Z,97549.96
2023-04-16T01:52:35.971Z,97552.23
2023-04-16T01:55:04.158Z,97549.19
2023-04-16T01:57:32.080Z,97545.35
2023-04-16T01:59:59.919Z,97541.67
2023-04-16T02:02:29.520Z,97545.41
2023-04-16T02:04:57.961Z,97547.92
2023-04-16T02:07:26.100Z,97547.72
2023-04-16T02:09:54.263Z,97547.44
2023-04-16T02:12:22.160Z,97548.98
2023-04-16T02:14:50.089Z,97551.23
2023-04-16T02:17:19.351Z,97553.27
2023-04-16T02:19:50.493Z,97554.97
2023-04-16T02:22:18.828Z,97554.16
2023-04-16T02:24:47.289Z,97560.30
2023-04-16T02:27:16.238Z,97561.52
2023-04-16T02:29:45.037Z,97565.16
2023-04-16T02:32:15.851Z,97566.38
2023-04-16T02:34:45.661Z,97569.02
2023-04-16T02:37:15.449Z,97567.52
2023-04-16T02:39:44.142Z,97561.15
2023-04-16T02:42:38.699Z,97562.85
2023-04-16T02:45:15.597Z,97561.33
2023-04-16T02:47:43.555Z,97560.96
2023-04-16T02:50:11.832Z,97562.02
2023-04-16T02:52:39.890Z,97564.00
2023-04-16T02:55:08.919Z,97567.38
2023-04-16T02:57:36.890Z,97564.33
2023-04-16T03:00:05.286Z,97573.63
2023-04-16T03:02:33.583Z,97575.08
2023-04-16T03:05:02.007Z,97578.96
2023-04-16T03:07:30.325Z,97582.08
2023-04-16T03:09:58.606Z,97588.27
2023-04-16T03:12:26.497Z,97587.52
2023-04-16T03:14:54.451Z,97593.13
2023-04-16T03:17:22.372Z,97589.82
2023-04-16T03:19:51.037Z,97589.17
2023-04-16T03:22:20.853Z,97596.21
2023-04-16T03:24:49.179Z,97598.68
2023-04-16T03:27:17.066Z,97604.60
2023-04-16T03:29:45.873Z,97604.92
2023-04-16T03:32:14.671Z,97607.10
2023-04-16T03:34:45.607Z,97612.65
2023-04-16T03:37:13.494Z,97612.87
2023-04-16T03:39:41.635Z,97618.84
2023-04-16T03:42:11.901Z,97622.85
2023-04-16T03:44:39.900Z,97628.86
2023-04-16T03:47:07.833Z,97624.33
2023-04-16T03:49:36.874Z,97621.13
2023-04-16T03:52:05.112Z,97620.39
2023-04-16T03:54:33.143Z,97626.42
2023-04-16T03:57:10.434Z,97630.00
2023-04-16T03:59:38.788Z,97630.55
2023-04-16T04:02:07.415Z,97631.88
2023-04-16T04:04:35.527Z,97636.31
2023-04-16T04:07:04.342Z,97642.89
2023-04-16T04:09:34.105Z,97640.84
2023-04-16T04:12:04.555Z,97651.20
2023-04-16T04:14:32.971Z,97655.16
2023-04-16T04:17:00.982Z,97658.48
2023-04-16T04:19:28.880Z,97665.25
2023-04-16T04:21:56.778Z,97672.09
2023-04-16T04:24:24.786Z,97673.63
2023-04-16T04:26:52.784Z,97674.98
2023-04-16T04:29:20.799Z,97678.92
2023-04-16T04:31:48.759Z,97676.77
2023-04-16T04:34:17.162Z,97685.75
2023-04-16T04:36:45.721Z,97689.27
2023-04-16T04:39:15.171Z,97688.80
2023-04-16T04:41:44.065Z,97690.60
2023-04-16T04:44:12.020Z,97690.98
2023-04-16T04:46:40.948Z,97691.73
2023-04-16T04:49:09.446Z,97693.81
2023-04-16T04:51:38.101Z,97696.42
2023-04-16T04:54:06.591Z,97697.02
2023-04-16T04:56:34.658Z,97700.71
2023-04-16T04:59:02.650Z,97703.81
2023-04-16T05:01:30.673Z,97706.42
2023-04-16T05:03:58.799Z,97710.39
2023-04-16T05:06:29.561Z,97711.98
2023-04-16T05:08:57.625Z,97709.90
2023-04-16T05:11:25.593Z,97714.92
2023-04-16T05:13:53.642Z,97711.45
2023-04-16T05:16:21.576Z,97713.42
2023-04-16T05:18:50.531Z,97719.13
2023-04-16T05:21:18.490Z,97724.31
2023-04-16T05:23:46.364Z,97724.20
2023-04-16T05:26:14.327Z,97724.89
2023-04-16T05:28:42.209Z,97726.55
2023-04-16T05:31:10.345Z,97724.36
2023-04-16T05:33:38.403Z,97727.95
2023-04-16T05:36:06.573Z,97728.14
2023-04-16T05:38:34.474Z,97730.77
2023-04-16T05:41:02.403Z,97738.40
2023-04-16T05:43:30.333Z,97741.40
2023-04-16T05:45:58.286Z,97745.33
2023-04-16T05:48:26.173Z,97749.28
2023-04-16T05:50:54.104Z,97753.61
2023-04-16T05:53:22.094Z,97766.59
2023-04-16T05:55:50.057Z,97765.23
2023-04-16T05:58:17.962Z,97771.48
2023-04-16T06:00:45.924Z,97774.10
2023-04-16T06:03:13.989Z,97775.39
2023-04-16T06:05:42.051Z,97775.65
2023-04-16T06:08:10.163Z,97778.43
2023-04-16T06:10:38.108Z,97777.95
2023-04-16T06:13:06.138Z,97779.74
2023-04-16T06:15:34.095Z,97780.34
2023-04-16T06:18:02.071Z,97784.06
2023-04-16T06:20:30.763Z,97782.77
2023-04-16T06:22:58.741Z,97785.96
2023-04-16T06:25:26.679Z,97783.42
2023-04-16T06:27:54.603Z,97785.30
2023-04-16T06:30:22.605Z,97789.84
2023-04-16T06:32:50.724Z,97787.57
2023-04-16T06:35:20.385Z,97786.33
2023-04-16T06:37:48.456Z,97784.22
2023-04-16T06:40:16.704Z,97778.86
2023-04-16T06:42:45.682Z,97777.07
2023-04-16T06:45:14.062Z,97771.98
2023-04-16T06:47:42.109Z,97774.46
2023-04-16T06:50:10.662Z,97776.45
2023-04-16T06:52:38.736Z,97780.67
2023-04-16T06:55:09.909Z,97784.08
2023-04-16T06:57:38.061Z,97780.83
2023-04-16T07:00:06.902Z,97781.55
2023-04-16T07:02:35.317Z,97784.56
2023-04-16T07:05:03.821Z,97790.88
2023-04-16T07:07:32.269Z,97795.08
2023-04-16T07:10:00.442Z,97793.67
2023-04-16T07:12:28.550Z,97795.82
2023-04-16T07:14:56.773Z,97797.20
2023-04-16T07:17:25.432Z,97797.00
2023-04-16T07:19:54.228Z,97801.42
2023-04-16T07:22:22.163Z,97811.43
2023-04-16T07:24:50.353Z,97811.77
2023-04-16T07:27:18.317Z,97813.70
2023-04-16T07:29:46.727Z,97812.19
2023-04-16T07:32:15.617Z,97818.70
2023-04-16T07:34:43.920Z,97818.59
2023-04-16T07:37:11.863Z,97815.48
2023-04-16T07:39:40.258Z,97823.43
2023-04-16T07:42:08.282Z,97827.79
2023-04-16T07:44:36.448Z,97828.48
2023-04-16T07:47:05.603Z,97832.98
2023-04-16T07:49:34.258Z,97830.92
2023-04-16T07:52:02.311Z,97834.81
2023-04-16T07:54:30.276Z,97838.42
2023-04-16T07:56:58.144Z,97836.25
2023-04-16T07:59:26.396Z,97838.97
2023-04-16T08:01:54.792Z,97842.29
2023-04-16T08:04:25.702Z,97840.95
2023-04-16T08:06:54.543Z,97843.19
2023-04-16T08:09:24.177Z,97841.11
2023-04-16T08:11:52.326Z,97845.05
2023-04-16T08:14:20.570Z,97844.55
2023-04-16T08:16:49.505Z,97846.77
2023-04-16T08:19:17.572Z,97852.04
2023-04-16T08:21:47.114Z,97853.96
2023-04-16T08:24:15.155Z,97852.05
2023-04-16T08:26:43.116Z,97853.19
2023-04-16T08:29:11.347Z,97855.11
2023-04-16T08:31:39.623Z,97859.95
2023-04-16T08:34:07.720Z,97861.49
2023-04-16T08:36:35.683Z,97852.77
2023-04-16T08:39:03.962Z,97854.32
2023-04-16T08:41:36.380Z,97854.20
2023-04-16T08:44:09.449Z,97863.94
2023-04-16T08:46:38.393Z,97863.54
2023-04-16T08:49:08.321Z,97869.88
2023-04-16T08:51:37.152Z,97880.66
2023-04-16T08:54:09.233Z,97878.21
2023-04-16T08:56:40.777Z,97875.27
2023-04-16T08:59:10.126Z,97873.07
2023-04-16T09:01:41.773Z,97878.02
2023-04-16T09:04:10.134Z,97883.05
2023-04-16T09:06:39.018Z,97881.81
2023-04-16T09:09:09.139Z,97876.14
2023-04-16T09:11:39.580Z,97878.20
2023-04-16T09:14:11.307Z,97880.92
2023-04-16T09:16:39.866Z,97879.52
2023-04-16T09:19:08.132Z,97881.75
2023-04-16T09:21:36.927Z,97875.85
2023-04-16T09:24:05.526Z,97873.77
2023-04-16T09:26:34.171Z,97879.31
2023-04-16T09:29:02.902Z,97880.98
2023-04-16T09:31:30.903Z,97884.70
2023-04-16T09:34:09.278Z,97881.83
2023-04-16T09:36:37.715Z,97877.70
2023-04-16T09:39:06.548Z,97877.65
2023-04-16T09:41:39.887Z,97877.52
2023-04-16T09:44:08.307Z,97882.60
2023-04-16T09:46:43.328Z,97880.58
2023-04-16T09:49:17.685Z,97883.48
2023-04-16T09:51:51.060Z,97881.59
2023-04-16T09:54:24.197Z,97876.57
2023-04-16T09:56:56.850Z,97881.83
2023-04-16T09:59:25.709Z,97886.23
2023-04-16T10:02:15.771Z,97884.91
2023-04-16T10:04:48.560Z,97884.85
2023-04-16T10:07:17.773Z,97874.61
2023-04-16T10:09:50.189Z,97875.91
2023-04-16T10:12:18.396Z,97878.00
2023-04-16T10:14:48.302Z,97879.57
2023-04-16T10:17:17.850Z,97879.38
2023-04-16T10:19:46.805Z,97881.90
2023-04-16T10:22:15.460Z,97885.93
2023-04-16T10:24:44.225Z,97888.42
2023-04-16T10:27:12.445Z,97884.89
2023-04-16T10:29:41.592Z,97884.45
2023-04-16T10:32:10.480Z,97886.48
2023-04-16T10:34:39.466Z,97884.92
2023-04-16T10:37:07.391Z,97888.56
2023-04-16T10:39:37.678Z,97889.71
2023-04-16T10:42:13.174Z,97895.08
2023-04-16T10:44:44.337Z,97893.07
2023-04-16T10:47:14.462Z,97892.45
2023-04-16T10:49:44.085Z,97890.88
2023-04-16T10:52:17.178Z,97890.61
2023-04-16T10:54:48.022Z,97893.13
2023-04-16T10:57:18.154Z,97890.25
2023-04-16T10:59:48.890Z,97891.03
2023-04-16T11:02:19.619Z,97890.27
2023-04-16T11:04:49.313Z,97891.32
2023-04-16T11:07:20.639Z,97893.84
2023-04-16T11:09:54.688Z,97897.08
2023-04-16T11:12:27.789Z,97900.45
2023-04-16T11:15:03.388Z,97895.81
2023-04-16T11:17:37.328Z,97895.77
2023-04-16T11:20:19.062Z,97893.46
2023-04-16T11:22:54.827Z,97893.94
2023-04-16T11:25:30.355Z,97897.58
2023-04-16T11:28:01.639Z,97897.73
2023-04-16T11:30:37.590Z,97895.33
2023-04-16T11:33:08.515Z,97894.98
2023-04-16T11:35:37.311Z,97896.71
2023-04-16T11:38:09.102Z,97889.80
2023-04-16T11:40:37.130Z,97889.66
2023-04-16T11:43:15.040Z,97892.30
2023-04-16T11:46:10.319Z,97889.34
2023-04-16T11:48:55.673Z,97892.36
2023-04-16T11:51:24.078Z,97885.11
2023-04-16T11:53:54.361Z,97888.09
2023-04-16T11:56:29.994Z,97887.51
2023-04-16T11:59:09.037Z,97878.19
2023-04-16T12:01:39.283Z,97881.25
2023-04-16T12:04:08.556Z,97886.34
2023-04-16T12:06:37.119Z,97885.73
2023-04-16T12:09:26.108Z,97887.31
2023-04-16T12:11:54.306Z,97893.31
2023-04-16T12:14:23.797Z,97889.22
2023-04-16T12:16:51.874Z,97890.45
2023-04-16T12:19:21.001Z,97888.87
2023-04-16T12:21:50.113Z,97893.85
2023-04-16T12:24:24.278Z,97888.59
2023-04-16T12:26:57.503Z,97882.80
2023-04-16T12:29:27.630Z,97877.77
2023-04-16T12:31:55.968Z,97875.66
2023-04-16T12:34:29.021Z,97871.92
2023-04-16T12:37:13.019Z,97871.83
2023-04-16T12:39:41.497Z,97869.84
2023-04-16T12:42:11.553Z,97863.42
2023-04-16T12:44:39.782Z,97862.55
2023-04-16T12:47:08.407Z,97862.90
2023-04-16T12:49:37.411Z,97859.30
2023-04-16T12:52:06.465Z,97858.05
2023-04-16T12:54:36.738Z,97855.81
2023-04-16T12:57:05.192Z,97857.19
2023-04-16T12:59:33.321Z,97858.70
2023-04-16T13:02:02.893Z,97860.28
2023-04-16T13:04:31.230Z,97863.54
2023-04-16T13:06:59.905Z,97863.52
2023-04-16T13:09:28.696Z,97860.27
2023-04-16T13:11:56.707Z,97859.90
2023-04-16T13:14:24.843Z,97858.45
2023-04-16T13:16:52.811Z,97856.98
2023-04-16T13:19:21.369Z,97858.33
2023-04-16T13:21:49.496Z,97854.04
2023-04-16T13:24:17.518Z,97854.42
2023-04-16T13:26:45.526Z,97852.74
2023-04-16T13:29:13.704Z,97848.54
2023-04-16T13:31:41.804Z,97848.41
2023-04-16T13:34:10.905Z,97849.33
2023-04-16T13:36:39.069Z,97847.52
2023-04-16T13:39:11.709Z,97844.73
2023-04-16T13:41:40.477Z,97846.22
2023-04-16T13:44:08.695Z,97850.04
2023-04-16T13:46:36.805Z,97849.55
2023-04-16T13:49:05.019Z,97854.54
2023-04-16T13:51:33.064Z,97854.63
2023-04-16T13:54:01.258Z,97856.66
2023-04-16T13:56:29.244Z,97859.77
2023-04-16T13:59:13.218Z,97857.88
2023-04-16T14:01:49.419Z,97855.50
2023-04-16T14:04:26.065Z,97856.90
2023-04-16T14:06:57.143Z,97860.92
2023-04-16T14:09:30.611Z,97860.14
2023-04-16T14:11:59.042Z,97858.55
2023-04-16T14:14:27.407Z,97856.33
2023-04-16T14:16:55.951Z,97855.02
2023-04-16T14:19:26.075Z,97855.86
2023-04-16T14:21:57.813Z,97854.09
2023-04-16T14:24:26.176Z,97852.73
2023-04-16T14:26:54.441Z,97853.85
2023-04-16T14:29:22.373Z,97854.85
2023-04-16T14:31:50.617Z,97854.56
2023-04-16T14:34:18.673Z,97851.71
2023-04-16T14:36:47.075Z,97852.94
2023-04-16T14:39:16.189Z,97849.42
2023-04-16T14:41:44.454Z,97850.38
2023-04-16T14:44:12.501Z,97852.73
2023-04-16T14:46:41.213Z,97847.73
2023-04-16T14:49:12.215Z,97845.48
2023-04-16T14:51:41.961Z,97841.21
2023-04-16T14:54:10.126Z,97847.86
2023-04-16T14:56:41.363Z,97850.11
2023-04-16T14:59:24.329Z,97853.43
2023-04-16T15:01:59.579Z,97853.63
2023-04-16T15:04:28.341Z,97849.84
2023-04-16T15:06:59.571Z,97854.42
2023-04-16T15:09:28.017Z,97853.73
2023-04-16T15:11:57.146Z,97854.47
2023-04-16T15:14:25.454Z,97855.46
2023-04-16T15:16:53.947Z,97856.75
2023-04-16T15:19:22.559Z,97857.56
2023-04-16T15:21:50.580Z,97858.73
2023-04-16T15:24:19.099Z,97856.41
2023-04-16T15:26:51.478Z,97857.69
2023-04-16T15:29:19.648Z,97860.27
2023-04-16T15:31:47.963Z,97861.66
2023-04-16T15:34:16.079Z,97866.20
2023-04-16T15:36:44.269Z,97868.78
2023-04-16T15:39:12.554Z,97870.57
2023-04-16T15:41:53.639Z,97871.59
2023-04-16T15:44:27.290Z,97875.59
2023-04-16T15:46:55.365Z,97871.18
2023-04-16T15:49:25.010Z,97871.62
2023-04-16T15:51:53.918Z,97874.34
2023-04-16T15:54:22.050Z,97874.87
2023-04-16T15:56:50.568Z,97873.54
2023-04-16T15:59:18.572Z,97872.55
2023-04-16T16:01:46.711Z,97872.09
2023-04-16T16:04:14.819Z,97875.20
2023-04-16T16:06:43.186Z,97874.95
2023-04-16T16:09:11.800Z,97877.48
2023-04-16T16:11:40.299Z,97875.96
2023-04-16T16:14:08.272Z,97879.84
2023-04-16T16:16:36.957Z,97880.13
2023-04-16T16:19:05.565Z,97882.25
2023-04-16T16:21:33.936Z,97884.29
2023-04-16T16:24:02.280Z,97886.87
2023-04-16T16:26:31.714Z,97888.82
2023-04-16T16:28:59.811Z,97888.29
2023-04-16T16:31:30.605Z,97891.67
2023-04-16T16:33:58.565Z,97895.51
2023-04-16T16:36:30.206Z,97894.78
2023-04-16T16:38:58.290Z,97897.41
2023-04-16T16:41:26.567Z,97897.89
2023-04-16T16:43:56.450Z,97898.11
2023-04-16T16:46:24.772Z,97900.30
2023-04-16T16:48:52.807Z,97901.16
2023-04-16T16:51:21.649Z,97904.19
2023-04-16T16:53:49.597Z,97904.11
2023-04-16T16:56:17.613Z,97906.16
2023-04-16T16:58:45.546Z,97909.41
2023-04-16T17:01:13.651Z,97911.61
2023-04-16T17:03:41.821Z,97913.78
2023-04-16T17:06:09.933Z,97916.21
2023-04-16T17:08:38.342Z,97919.11
2023-04-16T17:11:06.407Z,97921.56
2023-04-16T17:13:34.599Z,97924.45
2023-04-16T17:16:02.564Z,97929.65
2023-04-16T17:18:30.921Z,97931.76
2023-04-16T17:20:58.800Z,97935.93
2023-04-16T17:23:27.073Z,97936.83
2023-04-16T17:25:55.012Z,97941.19
2023-04-16T17:28:23.192Z,97941.02
2023-04-16T17:30:52.613Z,97949.30
2023-04-16T17:33:20.690Z,97948.79
2023-04-16T17:35:49.217Z,97952.35
2023-04-16T17:38:17.403Z,97958.80
2023-04-16T17:40:45.500Z,97958.38
2023-04-16T17:43:13.575Z,97959.51
2023-04-16T17:45:41.661Z,97961.23
2023-04-16T17:48:09.686Z,97965.98
2023-04-16T17:50:39.506Z,97963.52
2023-04-16T17:53:07.999Z,97971.09
2023-04-16T17:55:36.096Z,97973.29
2023-04-16T17:58:04.935Z,97977.42
2023-04-16T18:00:33.119Z,97975.96
2023-04-16T18:03:01.367Z,97978.70
2023-04-16T18:05:31.006Z,97978.99
2023-04-16T18:07:59.260Z,97981.93
2023-04-16T18:10:29.710Z,97981.40
2023-04-16T18:12:57.886Z,97985.21
2023-04-16T18:15:25.907Z,97988.58
2023-04-16T18:17:54.525Z,97989.64
2023-04-16T18:20:22.659Z,97992.63
2023-04-16T18:22:50.695Z,97992.48
2023-04-16T18:25:21.546Z,97991.41
2023-04-16T18:27:58.950Z,97995.58
2023-04-16T18:30:26.991Z,98000.98
2023-04-16T18:35:30.067Z,98003.83
2023-04-16T18:37:58.012Z,98007.48
2023-04-16T18:40:26.234Z,98010.77
2023-04-16T18:42:54.161Z,98012.17
2023-04-16T18:45:22.214Z,98015.11
2023-04-16T18:47:51.056Z,98016.75
2023-04-16T18:50:18.951Z,98016.94
2023-04-16T18:52:47.130Z,98019.55
2023-04-16T18:55:15.561Z,98022.45
2023-04-16T18:57:43.695Z,98024.85
2023-04-16T19:00:13.070Z,98023.02
2023-04-16T19:02:41.409Z,98025.02
2023-04-16T19:05:10.057Z,98023.98
2023-04-16T19:07:38.738Z,98022.59
2023-04-16T19:10:07.576Z,98021.50
2023-04-16T19:12:35.870Z,98020.80
2023-04-16T19:15:04.898Z,98020.70
2023-04-16T19:17:33.050Z,98020.07
2023-04-16T19:20:01.001Z,98017.91
2023-04-16T19:22:29.388Z,98021.95
2023-04-16T19:24:57.818Z,98023.50
2023-04-16T19:27:29.212Z,98022.05
2023-04-16T19:29:57.267Z,98022.25
2023-04-16T19:32:25.544Z,98016.27
2023-04-16T19:34:53.768Z,98012.30
2023-04-16T19:37:21.965Z,98012.12
2023-04-16T19:39:50.601Z,98014.16
2023-04-16T19:42:18.942Z,98014.59
2023-04-16T19:44:46.926Z,98017.32
2023-04-16T19:47:15.043Z,98018.40
2023-04-16T19:49:44.287Z,98013.61
2023-04-16T19:52:21.209Z,98015.21
2023-04-16T19:54:51.783Z,98012.86
2023-04-16T19:57:19.782Z,98013.21
2023-04-16T19:59:47.844Z,98009.34
2023-04-16T20:02:15.763Z,98012.48
2023-04-16T20:04:44.908Z,98014.23
2023-04-16T20:07:14.843Z,98018.38
2023-04-16T20:09:43.328Z,98017.75
2023-04-16T20:12:11.763Z,98015.90
2023-04-16T20:14:40.548Z,98013.54
2023-04-16T20:17:10.331Z,98014.34
2023-04-16T20:19:38.633Z,98007.59
2023-04-16T20:22:06.753Z,98008.83
2023-04-16T20:24:34.837Z,98011.05
2023-04-16T20:27:03.264Z,98006.69
2023-04-16T20:29:31.332Z,98002.85
2023-04-16T20:31:59.599Z,98005.42
2023-04-16T20:34:28.592Z,98001.75
2023-04-16T20:36:58.128Z,98003.62
2023-04-16T20:39:27.388Z,98003.14
2023-04-16T20:41:58.250Z,98004.86
2023-04-16T20:44:33.343Z,98001.46
2023-04-16T20:47:01.417Z,98003.55
2023-04-16T20:49:30.341Z,98005.11
2023-04-16T20:51:58.370Z,98005.55
2023-04-16T20:54:27.254Z,98001.72
2023-04-16T20:56:56.199Z,98004.51
2023-04-16T20:59:25.047Z,97999.08
2023-04-16T21:01:52.935Z,97998.93
2023-04-16T21:04:21.444Z,97998.30
2023-04-16T21:06:53.605Z,97998.14
2023-04-16T21:09:21.972Z,97997.36
2023-04-16T21:11:49.998Z,98001.95
2023-04-16T21:14:19.202Z,97998.04
2023-04-16T21:16:47.148Z,97998.05
2023-04-16T21:19:15.090Z,97997.06
2023-04-16T21:21:43.049Z,98000.09
2023-04-16T21:24:10.963Z,98000.85
2023-04-16T21:26:38.851Z,98002.76
2023-04-16T21:29:06.736Z,98002.64
2023-04-16T21:31:34.844Z,98006.33
2023-04-16T21:34:02.829Z,98000.90
2023-04-16T21:36:33.233Z,98003.98
2023-04-16T21:39:01.667Z,98001.50
2023-04-16T21:41:29.720Z,98000.71
2023-04-16T21:43:57.637Z,97994.97
2023-04-16T21:46:26.432Z,97996.28
2023-04-16T21:48:54.396Z,97997.09
2023-04-16T21:51:29.324Z,97998.00
2023-04-16T21:53:57.675Z,97999.37
2023-04-16T21:56:26.223Z,97999.02
2023-04-16T21:58:54.230Z,97998.33
2023-04-16T22:01:22.228Z,97998.84
2023-04-16T22:03:52.216Z,97998.39
2023-04-16T22:06:20.688Z,97998.42
2023-04-16T22:08:50.269Z,97991.08
2023-04-16T22:11:18.403Z,97990.96
2023-04-16T22:13:47.862Z,97988.33
2023-04-16T22:16:16.386Z,97986.27
2023-04-16T22:18:45.447Z,97988.04
2023-04-16T22:21:13.773Z,97991.73
2023-04-16T22:23:41.875Z,97990.58
2023-04-16T22:26:10.196Z,97989.46
2023-04-16T22:28:38.124Z,97990.02
2023-04-16T22:31:06.020Z,97985.86
2023-04-16T22:33:33.908Z,97988.85
2023-04-16T22:36:01.825Z,97988.63
2023-04-16T22:38:29.733Z,97992.77
2023-04-16T22:40:57.630Z,97991.09
2023-04-16T22:43:25.501Z,97996.84
2023-04-16T22:46:04.770Z,97997.66
2023-04-16T22:48:36.412Z,97998.09
2023-04-16T22:51:07.230Z,97994.77
2023-04-16T22:53:35.371Z,97999.63
2023-04-16T22:56:03.270Z,98000.27
2023-04-16T22:58:31.184Z,97996.35
2023-04-16T23:00:59.634Z,97994.17
2023-04-16T23:03:29.354Z,97993.61
2023-04-16T23:05:57.810Z,97989.23
2023-04-16T23:08:25.719Z,97989.89
2023-04-16T23:10:53.608Z,97991.03
2023-04-16T23:13:21.547Z,97985.57
2023-04-16T23:15:52.729Z,97984.91
2023-04-16T23:18:23.704Z,97985.67
2023-04-16T23:20:52.782Z,97985.02
2023-04-16T23:23:21.113Z,97985.41
2023-04-16T23:25:53.483Z,97986.21
2023-04-16T23:28:22.147Z,97982.46
2023-04-16T23:30:53.317Z,97981.77
2023-04-16T23:33:21.860Z,97982.08
2023-04-16T23:35:50.054Z,97984.23
2023-04-16T23:38:18.037Z,97977.27
2023-04-16T23:40:46.121Z,97980.67
2023-04-16T23:43:18.007Z,97976.96
2023-04-16T23:45:46.012Z,97978.31
2023-04-16T23:48:13.958Z,97976.58
2023-04-16T23:50:41.840Z,97980.40
2023-04-16T23:53:09.762Z,97978.80
2023-04-16T23:55:37.879Z,97981.17
2023-04-16T23:58:07.154Z,97973.41
